createdAt,value
2019-03-04T00:00:07.669Z,95.90
2019-03-04T00:02:36.609Z,95.70
2019-03-04T00:05:06.242Z,95.70
2019-03-04T00:07:35.116Z,95.70
2019-03-04T00:10:05.056Z,95.60
2019-03-04T00:12:34.212Z,95.60
2019-03-04T00:15:07.300Z,95.50
2019-03-04T00:17:36.189Z,95.50
2019-03-04T00:20:07.113Z,95.40
2019-03-04T00:22:36.105Z,95.30
2019-03-04T00:25:05.654Z,95.30
2019-03-04T00:27:34.540Z,95.20
2019-03-04T00:30:04.391Z,95.30
2019-03-04T00:32:33.258Z,95.10
2019-03-04T00:35:02.152Z,95.00
2019-03-04T00:37:31.088Z,94.90
2019-03-04T00:39:59.975Z,94.60
2019-03-04T00:42:28.920Z,94.60
2019-03-04T00:44:57.795Z,94.40
2019-03-04T00:47:26.765Z,94.40
2019-03-04T00:49:57.062Z,94.40
2019-03-04T00:52:26.076Z,94.60
2019-03-04T00:54:54.959Z,94.00
2019-03-04T00:57:23.824Z,93.80
2019-03-04T00:59:52.701Z,93.60
2019-03-04T01:02:21.589Z,93.60
2019-03-04T01:04:50.468Z,93.50
2019-03-04T01:07:19.324Z,93.30
2019-03-04T01:09:48.191Z,93.10
2019-03-04T01:12:17.056Z,93.00
2019-03-04T01:14:45.924Z,92.80
2019-03-04T01:17:14.787Z,92.70
2019-03-04T01:19:43.742Z,92.80
2019-03-04T01:22:12.629Z,92.70
2019-03-04T01:24:41.493Z,92.70
2019-03-04T01:27:10.353Z,92.80
2019-03-04T01:29:39.238Z,92.70
2019-03-04T01:32:08.173Z,92.70
2019-03-04T01:34:37.028Z,92.90
2019-03-04T01:37:05.896Z,92.80
2019-03-04T01:39:34.772Z,92.70
2019-03-04T01:42:03.648Z,92.90
2019-03-04T01:44:32.516Z,92.90
2019-03-04T01:47:01.470Z,92.80
2019-03-04T01:49:30.332Z,92.80
2019-03-04T01:51:59.221Z,92.90
2019-03-04T01:54:28.193Z,92.70
2019-03-04T01:56:57.121Z,92.70
2019-03-04T01:59:25.980Z,92.70
2019-03-04T02:01:54.868Z,92.80
2019-03-04T02:04:23.801Z,92.80
2019-03-04T02:06:52.681Z,92.90
2019-03-04T02:09:21.540Z,92.80
2019-03-04T02:11:50.438Z,92.80
2019-03-04T02:14:19.349Z,92.70
2019-03-04T02:16:48.227Z,93.10
2019-03-04T02:19:17.111Z,92.60
2019-03-04T02:21:45.980Z,92.60
2019-03-04T02:24:22.984Z,92.40
2019-03-04T02:26:52.905Z,92.20
2019-03-04T02:29:21.763Z,92.30
2019-03-04T02:31:50.642Z,92.10
2019-03-04T02:34:19.539Z,91.90
2019-03-04T02:36:48.490Z,91.70
2019-03-04T02:39:17.362Z,91.60
2019-03-04T02:41:46.365Z,91.30
2019-03-04T02:44:15.301Z,91.40
2019-03-04T02:46:44.176Z,91.30
2019-03-04T02:49:13.042Z,91.30
2019-03-04T02:51:41.996Z,91.40
2019-03-04T02:54:10.933Z,91.30
2019-03-04T02:56:39.820Z,91.40
2019-03-04T02:59:08.689Z,91.40
2019-03-04T03:01:37.572Z,91.30
2019-03-04T03:04:06.456Z,91.50
2019-03-04T03:06:35.331Z,91.60
2019-03-04T03:09:05.543Z,91.50
2019-03-04T03:11:34.412Z,91.40
2019-03-04T03:14:03.300Z,91.50
2019-03-04T03:16:32.250Z,91.40
2019-03-04T03:19:01.159Z,91.40
2019-03-04T03:21:30.085Z,91.40
2019-03-04T03:23:59.607Z,91.50
2019-03-04T03:26:29.164Z,91.40
2019-03-04T03:28:58.061Z,91.10
2019-03-04T03:31:26.969Z,91.40
2019-03-04T03:33:55.917Z,91.50
2019-03-04T03:36:26.509Z,91.60
2019-03-04T03:38:55.466Z,91.40
2019-03-04T03:41:24.333Z,91.40
2019-03-04T03:43:53.225Z,91.60
2019-03-04T03:46:22.104Z,91.60
2019-03-04T03:48:51.073Z,91.60
2019-03-04T03:51:20.361Z,91.70
2019-03-04T03:53:49.334Z,91.70
2019-03-04T03:56:18.369Z,91.80
2019-03-04T03:58:47.248Z,91.90
2019-03-04T04:01:16.104Z,91.80
2019-03-04T04:03:45.021Z,91.80
2019-03-04T04:06:13.973Z,92.40
2019-03-04T04:08:43.001Z,93.00
2019-03-04T04:11:11.931Z,93.10
2019-03-04T04:13:40.808Z,93.10
2019-03-04T04:16:10.003Z,93.10
2019-03-04T04:18:38.948Z,93.20
2019-03-04T04:21:07.831Z,93.10
2019-03-04T04:23:36.718Z,93.00
2019-03-04T04:26:07.242Z,92.90
2019-03-04T04:28:36.117Z,92.80
2019-03-04T04:31:05.085Z,92.90
2019-03-04T04:33:34.034Z,92.80
2019-03-04T04:36:02.927Z,93.00
2019-03-04T04:38:31.803Z,93.00
2019-03-04T04:41:00.682Z,93.00
2019-03-04T04:43:31.212Z,92.90
2019-03-04T04:46:00.108Z,93.10
2019-03-04T04:48:29.003Z,93.20
2019-03-04T04:50:57.969Z,93.10
2019-03-04T04:53:26.849Z,93.00
2019-03-04T04:55:55.737Z,92.80
2019-03-04T04:58:24.631Z,92.80
2019-03-04T05:00:53.518Z,92.60
2019-03-04T05:03:22.389Z,92.60
2019-03-04T05:05:51.375Z,92.80
2019-03-04T05:08:20.261Z,92.90
2019-03-04T05:10:49.430Z,92.70
2019-03-04T05:13:18.312Z,92.80
2019-03-04T05:15:47.245Z,93.00
2019-03-04T05:18:16.217Z,92.50
2019-03-04T05:20:45.086Z,92.60
2019-03-04T05:23:14.019Z,92.60
2019-03-04T05:25:42.924Z,92.60
2019-03-04T05:28:11.877Z,92.40
2019-03-04T05:30:40.756Z,92.70
2019-03-04T05:33:09.642Z,92.80
2019-03-04T05:35:38.505Z,93.00
2019-03-04T05:38:07.391Z,93.20
2019-03-04T05:40:36.341Z,93.10
2019-03-04T05:43:05.218Z,93.50
2019-03-04T05:45:34.079Z,93.70
2019-03-04T05:48:02.958Z,93.60
2019-03-04T05:50:31.826Z,93.40
2019-03-04T05:53:00.691Z,93.40
2019-03-04T05:55:29.557Z,93.40
2019-03-04T05:57:58.425Z,93.40
2019-03-04T06:00:31.254Z,93.10
2019-03-04T06:03:03.702Z,93.20
2019-03-04T06:05:32.638Z,93.10
2019-03-04T06:08:05.852Z,93.00
2019-03-04T06:10:34.721Z,93.00
2019-03-04T06:13:03.603Z,92.90
2019-03-04T06:15:32.467Z,92.80
2019-03-04T06:18:01.344Z,93.00
2019-03-04T06:20:30.216Z,92.70
2019-03-04T06:22:59.100Z,92.90
2019-03-04T06:25:30.750Z,92.90
2019-03-04T06:27:59.708Z,92.90
2019-03-04T06:30:30.784Z,92.60
2019-03-04T06:32:59.711Z,92.50
2019-03-04T06:35:28.584Z,92.40
2019-03-04T06:37:57.461Z,92.40
2019-03-04T06:40:26.795Z,92.20
2019-03-04T06:42:55.674Z,92.20
2019-03-04T06:45:24.634Z,92.80
2019-03-04T06:47:53.514Z,92.00
2019-03-04T06:50:40.829Z,92.10
2019-03-04T06:53:09.734Z,91.80
2019-03-04T06:56:02.699Z,91.90
2019-03-04T06:58:43.456Z,91.40
2019-03-04T07:01:15.139Z,91.50
2019-03-04T07:03:47.365Z,91.40
2019-03-04T07:06:16.216Z,91.50
2019-03-04T07:08:48.329Z,88.50
2019-03-04T07:11:17.203Z,88.90
2019-03-04T07:13:46.136Z,91.00
2019-03-04T07:16:15.028Z,91.80
2019-03-04T07:18:43.877Z,92.20
2019-03-04T07:21:12.734Z,92.70
2019-03-04T07:23:41.578Z,92.80
2019-03-04T07:26:10.432Z,92.90
2019-03-04T07:28:39.320Z,92.90
2019-03-04T07:31:08.257Z,93.10
2019-03-04T07:33:37.147Z,93.10
2019-03-04T07:36:08.004Z,93.20
2019-03-04T07:38:45.832Z,93.20
2019-03-04T07:41:14.693Z,92.90
2019-03-04T07:43:43.538Z,92.90
2019-03-04T07:46:12.393Z,93.00
2019-03-04T07:48:41.265Z,92.70
2019-03-04T07:51:12.352Z,93.10
2019-03-04T07:53:46.304Z,93.00
2019-03-04T07:56:11.779Z,92.80
2019-03-04T07:58:40.616Z,93.00
2019-03-04T08:01:09.468Z,93.40
2019-03-04T08:03:38.308Z,93.50
2019-03-04T08:06:07.236Z,93.30
2019-03-04T08:08:36.920Z,93.20
2019-03-04T08:11:14.832Z,93.50
2019-03-04T08:13:46.944Z,93.60
2019-03-04T08:16:15.809Z,93.60
2019-03-04T08:18:44.668Z,93.70
2019-03-04T08:21:13.539Z,93.90
2019-03-04T08:23:42.388Z,93.70
2019-03-04T08:26:11.272Z,93.70
2019-03-04T08:28:41.824Z,93.50
2019-03-04T08:31:10.677Z,93.20
2019-03-04T08:33:39.535Z,93.40
2019-03-04T08:36:08.386Z,93.50
2019-03-04T08:38:37.228Z,93.80
2019-03-04T08:41:06.078Z,93.60
2019-03-04T08:43:34.916Z,93.20
2019-03-04T08:46:03.797Z,93.40
2019-03-04T08:48:32.740Z,93.30
2019-03-04T08:51:02.446Z,92.90
2019-03-04T08:53:31.379Z,93.30
2019-03-04T08:56:00.244Z,93.20
2019-03-04T08:58:29.090Z,93.10
2019-03-04T09:00:57.945Z,93.20
2019-03-04T09:03:26.801Z,93.40
2019-03-04T09:05:55.664Z,93.20
2019-03-04T09:08:24.597Z,93.20
2019-03-04T09:10:53.497Z,93.10
2019-03-04T09:13:22.363Z,92.60
2019-03-04T09:15:51.243Z,92.60
2019-03-04T09:18:20.088Z,92.70
2019-03-04T09:20:48.941Z,92.70
2019-03-04T09:23:17.782Z,92.40
2019-03-04T09:25:58.043Z,92.10
2019-03-04T09:28:26.908Z,92.50
2019-03-04T09:30:55.797Z,92.20
2019-03-04T09:33:24.661Z,92.40
2019-03-04T09:35:53.716Z,92.60
2019-03-04T09:38:22.577Z,93.10
2019-03-04T09:40:51.437Z,93.30
2019-03-04T09:43:20.692Z,93.10
2019-03-04T09:45:49.624Z,92.90
2019-03-04T09:48:18.511Z,92.80
2019-03-04T09:50:47.484Z,92.40
2019-03-04T09:53:16.360Z,92.40
2019-03-04T09:55:45.234Z,92.00
2019-03-04T09:58:14.171Z,92.40
2019-03-04T10:00:52.018Z,92.10
2019-03-04T10:03:42.080Z,92.00
2019-03-04T10:06:33.841Z,91.80
2019-03-04T10:09:23.657Z,91.90
2019-03-04T10:12:16.132Z,91.50
2019-03-04T10:15:20.560Z,91.30
2019-03-04T10:18:04.596Z,90.90
2019-03-04T10:20:42.377Z,90.80
2019-03-04T10:23:34.189Z,90.50
2019-03-04T10:26:22.569Z,90.30
2019-03-04T10:29:09.469Z,90.30
2019-03-04T10:31:50.839Z,89.60
2019-03-04T10:34:41.117Z,90.40
2019-03-04T10:37:35.663Z,89.50
2019-03-04T10:40:33.397Z,88.80
2019-03-04T10:43:08.392Z,88.40
2019-03-04T10:45:59.505Z,88.40
2019-03-04T10:48:28.448Z,87.80
2019-03-04T10:50:57.304Z,88.50
2019-03-04T10:53:26.197Z,85.10
2019-03-04T10:55:55.129Z,86.70
2019-03-04T10:58:24.008Z,86.30
2019-03-04T11:00:52.900Z,86.00
2019-03-04T11:03:21.864Z,86.00
2019-03-04T11:05:50.724Z,86.30
2019-03-04T11:08:19.670Z,87.00
2019-03-04T11:10:48.535Z,88.30
2019-03-04T11:13:17.426Z,89.20
2019-03-04T11:15:46.356Z,89.20
2019-03-04T11:18:15.265Z,89.80
2019-03-04T11:20:44.143Z,90.00
2019-03-04T11:23:15.010Z,90.60
2019-03-04T11:25:43.636Z,91.00
2019-03-04T11:28:12.496Z,91.40
2019-03-04T11:30:41.373Z,91.80
2019-03-04T11:33:10.308Z,90.90
2019-03-04T11:35:39.180Z,90.80
2019-03-04T11:38:11.304Z,90.30
2019-03-04T11:40:41.824Z,90.30
2019-03-04T11:43:10.692Z,90.00
2019-03-04T11:45:39.569Z,90.50
2019-03-04T11:48:08.433Z,90.30
2019-03-04T11:50:37.324Z,90.30
2019-03-04T11:53:06.182Z,90.60
2019-03-04T11:55:35.060Z,90.80
2019-03-04T11:58:03.924Z,90.20
2019-03-04T12:00:49.785Z,90.00
2019-03-04T12:03:18.653Z,90.30
2019-03-04T12:05:47.520Z,90.10
2019-03-04T12:08:16.393Z,89.60
2019-03-04T12:10:45.241Z,89.60
2019-03-04T12:13:14.100Z,90.00
2019-03-04T12:15:42.988Z,90.10
2019-03-04T12:18:11.953Z,90.20
2019-03-04T12:20:40.923Z,90.10
2019-03-04T12:23:09.777Z,90.50
2019-03-04T12:25:38.649Z,90.80
2019-03-04T12:28:07.520Z,91.50
2019-03-04T12:30:36.414Z,91.40
2019-03-04T12:33:05.850Z,91.50
2019-03-04T12:35:34.712Z,91.30
2019-03-04T12:38:03.592Z,90.80
2019-03-04T12:40:32.487Z,90.60
2019-03-04T12:43:01.339Z,89.90
2019-03-04T12:45:34.299Z,90.00
2019-03-04T12:48:00.804Z,89.70
2019-03-04T12:50:36.191Z,87.80
2019-03-04T12:53:05.393Z,85.80
2019-03-04T12:55:34.299Z,88.40
2019-03-04T12:58:03.424Z,87.40
2019-03-04T13:00:33.855Z,87.20
2019-03-04T13:03:02.717Z,87.80
2019-03-04T13:05:31.614Z,88.80
2019-03-04T13:08:00.477Z,89.70
2019-03-04T13:10:31.550Z,88.70
2019-03-04T13:12:59.973Z,88.20
2019-03-04T13:15:37.484Z,88.20
2019-03-04T13:18:15.340Z,87.40
2019-03-04T13:20:44.276Z,88.40
2019-03-04T13:23:15.531Z,89.00
2019-03-04T13:25:44.404Z,88.60
2019-03-04T13:28:13.260Z,87.80
2019-03-04T13:30:42.392Z,89.20
2019-03-04T13:33:11.274Z,88.70
2019-03-04T13:35:42.311Z,88.60
2019-03-04T13:38:11.197Z,89.00
2019-03-04T13:40:40.128Z,88.30
2019-03-04T13:43:09.005Z,88.60
2019-03-04T13:45:37.859Z,89.50
2019-03-04T13:48:06.708Z,89.00
2019-03-04T13:50:36.812Z,90.20
2019-03-04T13:53:05.676Z,90.40
2019-03-04T13:55:34.527Z,91.30
2019-03-04T13:58:03.400Z,91.60
2019-03-04T14:00:37.627Z,92.50
2019-03-04T14:03:05.924Z,91.90
2019-03-04T14:05:34.783Z,92.30
2019-03-04T14:08:03.656Z,91.50
2019-03-04T14:10:41.119Z,91.40
2019-03-04T14:13:10.065Z,91.30
2019-03-04T14:15:40.987Z,91.00
2019-03-04T14:18:09.851Z,90.50
2019-03-04T14:20:38.729Z,90.70
2019-03-04T14:23:07.655Z,90.40
2019-03-04T14:25:36.514Z,91.20
2019-03-04T14:28:05.382Z,91.70
2019-03-04T14:30:34.240Z,91.50
2019-03-04T14:33:03.112Z,91.60
2019-03-04T14:35:31.987Z,91.20
2019-03-04T14:38:00.847Z,92.10
2019-03-04T14:40:29.684Z,92.20
2019-03-04T14:42:58.561Z,91.80
2019-03-04T14:45:28.112Z,91.60
2019-03-04T14:47:56.976Z,91.00
2019-03-04T14:50:25.857Z,91.00
2019-03-04T14:52:54.751Z,90.80
2019-03-04T14:55:38.521Z,91.30
2019-03-04T14:58:07.400Z,91.70
2019-03-04T15:00:40.225Z,91.30
2019-03-04T15:03:19.036Z,91.20
2019-03-04T15:05:39.692Z,91.00
2019-03-04T15:08:08.566Z,91.50
2019-03-04T15:10:37.442Z,91.70
2019-03-04T15:13:06.318Z,91.70
2019-03-04T15:15:35.456Z,91.90
2019-03-04T15:18:04.327Z,91.90
2019-03-04T15:20:33.726Z,92.10
2019-03-04T15:23:02.660Z,92.00
2019-03-04T15:25:39.093Z,92.00
2019-03-04T15:28:46.980Z,91.90
2019-03-04T15:31:40.154Z,91.90
2019-03-04T15:34:00.457Z,92.10
2019-03-04T15:36:29.328Z,92.20
2019-03-04T15:38:58.187Z,92.50
2019-03-04T15:41:27.057Z,92.70
2019-03-04T15:43:55.924Z,92.50
2019-03-04T15:46:24.774Z,92.80
2019-03-04T15:48:53.627Z,93.00
2019-03-04T15:51:22.480Z,93.10
2019-03-04T15:53:51.336Z,93.20
2019-03-04T15:56:20.184Z,93.00
2019-03-04T15:58:49.070Z,93.20
2019-03-04T16:01:19.751Z,93.00
2019-03-04T16:03:48.615Z,93.00
2019-03-04T16:06:17.451Z,93.00
2019-03-04T16:08:46.325Z,92.50
2019-03-04T16:11:15.240Z,92.60
2019-03-04T16:13:52.766Z,92.90
2019-03-04T16:16:14.929Z,92.70
2019-03-04T16:18:43.785Z,93.00
2019-03-04T16:21:12.669Z,93.10
2019-03-04T16:23:41.523Z,92.80
2019-03-04T16:26:10.579Z,92.50
2019-03-04T16:28:39.427Z,92.80
2019-03-04T16:31:08.302Z,92.80
2019-03-04T16:33:39.304Z,92.80
2019-03-04T16:36:07.733Z,92.40
2019-03-04T16:38:36.600Z,92.50
2019-03-04T16:41:05.476Z,92.80
2019-03-04T16:43:34.340Z,93.10
2019-03-04T16:46:03.208Z,93.40
2019-03-04T16:48:32.145Z,94.10
2019-03-04T16:51:01.004Z,94.70
2019-03-04T16:53:34.720Z,94.00
2019-03-04T16:56:03.293Z,93.40
2019-03-04T16:58:32.154Z,93.40
2019-03-04T17:01:01.088Z,93.60
2019-03-04T17:03:29.940Z,93.60
2019-03-04T17:05:58.805Z,93.30
2019-03-04T17:08:27.664Z,93.50
2019-03-04T17:10:56.533Z,93.10
2019-03-04T17:13:25.396Z,93.10
2019-03-04T17:15:54.259Z,93.10
2019-03-04T17:18:23.112Z,93.20
2019-03-04T17:20:51.979Z,93.20
2019-03-04T17:23:20.828Z,93.30
2019-03-04T17:25:49.693Z,93.20
2019-03-04T17:28:18.544Z,93.10
2019-03-04T17:30:47.419Z,93.20
2019-03-04T17:33:16.268Z,93.10
2019-03-04T17:35:47.256Z,93.40
2019-03-04T17:38:17.448Z,93.20
2019-03-04T17:40:46.328Z,93.40
2019-03-04T17:43:15.192Z,93.70
2019-03-04T17:45:44.127Z,93.50
2019-03-04T17:48:12.992Z,93.80
2019-03-04T17:50:43.800Z,93.60
2019-03-04T17:53:14.187Z,93.40
2019-03-04T17:58:41.869Z,93.40
2019-03-04T18:01:10.748Z,93.10
2019-03-04T18:03:39.636Z,93.30
2019-03-04T18:06:08.544Z,92.60
2019-03-04T18:08:37.408Z,92.80
2019-03-04T18:11:06.283Z,92.70
2019-03-04T18:13:35.144Z,92.80
2019-03-04T18:16:04.173Z,92.90
2019-03-04T18:18:33.123Z,92.80
2019-03-04T18:21:01.977Z,92.50
2019-03-04T18:23:30.952Z,92.70
2019-03-04T18:26:12.096Z,92.70
2019-03-04T18:28:57.798Z,92.50
2019-03-04T18:31:47.780Z,92.20
2019-03-04T18:34:34.410Z,92.40
2019-03-04T18:37:06.603Z,92.00
2019-03-04T18:39:47.806Z,91.90
2019-03-04T18:42:37.584Z,91.70
2019-03-04T18:45:16.826Z,91.80
2019-03-04T18:48:05.580Z,91.50
2019-03-04T18:50:34.452Z,91.60
2019-03-04T18:53:03.331Z,91.20
2019-03-04T18:55:32.225Z,91.50
2019-03-04T18:58:01.316Z,91.50
2019-03-04T19:00:30.348Z,91.70
2019-03-04T19:02:59.228Z,91.80
2019-03-04T19:05:28.099Z,92.30
2019-03-04T19:07:56.981Z,92.50
2019-03-04T19:10:25.836Z,92.70
2019-03-04T19:12:54.704Z,93.00
2019-03-04T19:15:23.552Z,93.20
2019-03-04T19:17:52.432Z,93.20
2019-03-04T19:20:26.244Z,93.20
2019-03-04T19:22:55.289Z,93.40
2019-03-04T19:25:24.137Z,93.40
2019-03-04T19:27:53.013Z,93.20
2019-03-04T19:33:22.274Z,94.40
2019-03-04T19:35:51.146Z,93.20
2019-03-04T19:38:20.001Z,93.30
2019-03-04T19:40:48.850Z,93.20
2019-03-04T19:43:17.724Z,93.10
2019-03-04T19:45:46.581Z,92.90
2019-03-04T19:48:15.437Z,92.90
2019-03-04T19:50:44.284Z,93.30
2019-03-04T19:53:13.168Z,92.90
2019-03-04T19:55:42.028Z,92.80
2019-03-04T19:58:10.897Z,92.40
2019-03-04T20:00:39.763Z,91.90
2019-03-04T20:03:10.753Z,91.80
2019-03-04T20:05:39.264Z,91.80
2019-03-04T20:08:08.127Z,91.50
2019-03-04T20:10:37.009Z,91.70
2019-03-04T20:13:05.873Z,91.30
2019-03-04T20:15:36.748Z,91.20
2019-03-04T20:18:05.629Z,91.30
2019-03-04T20:20:34.507Z,91.70
2019-03-04T20:23:03.369Z,92.00
2019-03-04T20:25:32.220Z,91.70
2019-03-04T20:31:21.519Z,91.30
2019-03-04T20:33:52.160Z,91.20
2019-03-04T20:36:21.027Z,91.30
2019-03-04T20:38:49.890Z,91.10
2019-03-04T20:41:18.762Z,90.70
2019-03-04T20:43:47.633Z,90.70
2019-03-04T20:46:16.519Z,91.00
2019-03-04T20:48:45.381Z,91.10
2019-03-04T20:51:14.260Z,91.00
2019-03-04T20:53:43.128Z,91.10
2019-03-04T20:56:12.000Z,90.70
2019-03-04T20:58:40.865Z,90.70
2019-03-04T21:01:09.760Z,90.70
2019-03-04T21:03:38.863Z,90.70
2019-03-04T21:06:07.841Z,90.60
2019-03-04T21:08:36.698Z,90.30
2019-03-04T21:11:05.592Z,90.30
2019-03-04T21:13:35.974Z,90.40
2019-03-04T21:16:05.076Z,90.60
2019-03-04T21:18:33.928Z,90.20
2019-03-04T21:21:18.161Z,90.20
2019-03-04T21:23:48.522Z,90.10
2019-03-04T21:26:20.484Z,89.80
2019-03-04T21:29:01.879Z,89.60
2019-03-04T21:31:44.482Z,90.00
2019-03-04T21:34:19.453Z,89.70
2019-03-04T21:36:56.969Z,89.40
2019-03-04T21:39:48.439Z,90.00
2019-03-04T21:42:29.175Z,89.90
2019-03-04T21:45:08.847Z,89.70
2019-03-04T21:47:44.398Z,89.50
2019-03-04T21:50:19.431Z,89.10
2019-03-04T21:52:54.141Z,89.20
2019-03-04T21:55:28.949Z,89.00
2019-03-04T21:57:57.843Z,89.00
2019-03-04T22:00:30.661Z,88.90
2019-03-04T22:03:02.788Z,88.90
2019-03-04T22:05:31.672Z,88.60
2019-03-04T22:08:00.588Z,88.60
2019-03-04T22:10:29.529Z,88.40
2019-03-04T22:12:58.406Z,88.00
2019-03-04T22:15:27.392Z,88.40
2019-03-04T22:17:56.352Z,88.60
2019-03-04T22:20:25.236Z,88.50
2019-03-04T22:22:54.170Z,88.50
2019-03-04T22:25:23.064Z,88.40
2019-03-04T22:27:51.979Z,88.40
2019-03-04T22:30:20.840Z,88.00
2019-03-04T22:32:49.776Z,88.30
2019-03-04T22:35:18.631Z,88.00
2019-03-04T22:37:47.495Z,87.90
2019-03-04T22:40:21.772Z,88.00
2019-03-04T22:42:50.349Z,87.70
2019-03-04T22:45:20.481Z,87.90
2019-03-04T22:47:50.747Z,87.20
2019-03-04T22:50:20.944Z,86.90
2019-03-04T22:52:49.790Z,86.80
2019-03-04T22:55:27.568Z,86.80
2019-03-04T22:57:56.446Z,87.30
2019-03-04T23:00:54.299Z,87.30
2019-03-04T23:03:24.426Z,87.40
2019-03-04T23:06:02.515Z,87.50
2019-03-04T23:08:31.670Z,87.40
2019-03-04T23:11:00.589Z,87.20
2019-03-04T23:13:38.200Z,86.90
2019-03-04T23:16:07.807Z,86.80
2019-03-04T23:18:36.665Z,87.10
2019-03-04T23:21:06.509Z,87.00
2019-03-04T23:23:35.560Z,87.00
2019-03-04T23:26:04.481Z,86.50
2019-03-04T23:28:33.372Z,86.40
2019-03-04T23:31:02.233Z,86.50
2019-03-04T23:33:31.097Z,86.20
2019-03-04T23:35:59.974Z,86.40
2019-03-04T23:38:28.909Z,85.90
2019-03-04T23:40:57.762Z,86.10
2019-03-04T23:43:26.614Z,85.90
2019-03-04T23:45:55.486Z,85.90
2019-03-04T23:48:24.336Z,86.20
2019-03-04T23:50:53.842Z,86.20
2019-03-04T23:53:22.767Z,85.90
2019-03-04T23:55:51.656Z,86.40
2019-03-04T23:58:20.518Z,86.60
